sensor_id;sensor_type;location;lat;lon;timestamp;temperature;humidity
37052;DHT22;22964;52.272;13.356;2022-09-16T00:00:44;17.10;63.20
37052;DHT22;22964;52.272;13.356;2022-09-16T00:03:11;17.10;63.40
37052;DHT22;22964;52.272;13.356;2022-09-16T00:05:45;17.00;63.20
37052;DHT22;22964;52.272;13.356;2022-09-16T00:08:12;17.00;63.50
37052;DHT22;22964;52.272;13.356;2022-09-16T00:10:39;17.00;63.20
37052;DHT22;22964;52.272;13.356;2022-09-16T00:13:05;17.00;63.20
37052;DHT22;22964;52.272;13.356;2022-09-16T00:15:31;17.00;63.30
37052;DHT22;22964;52.272;13.356;2022-09-16T00:17:57;16.90;63.40
37052;DHT22;22964;52.272;13.356;2022-09-16T00:20:22;16.90;63.40
37052;DHT22;22964;52.272;13.356;2022-09-16T00:22:48;16.90;63.40
37052;DHT22;22964;52.272;13.356;2022-09-16T00:25:14;16.90;63.60
37052;DHT22;22964;52.272;13.356;2022-09-16T00:27:39;16.80;63.50
37052;DHT22;22964;52.272;13.356;2022-09-16T00:30:06;16.80;63.80
37052;DHT22;22964;52.272;13.356;2022-09-16T00:32:31;16.70;63.80
37052;DHT22;22964;52.272;13.356;2022-09-16T00:34:57;16.70;63.90
37052;DHT22;22964;52.272;13.356;2022-09-16T00:37:23;16.70;63.90
37052;DHT22;22964;52.272;13.356;2022-09-16T00:39:49;16.70;64.00
37052;DHT22;22964;52.272;13.356;2022-09-16T00:42:16;16.60;64.00
37052;DHT22;22964;52.272;13.356;2022-09-16T00:50:23;16.60;64.40
37052;DHT22;22964;52.272;13.356;2022-09-16T00:52:51;16.60;64.60
37052;DHT22;22964;52.272;13.356;2022-09-16T00:55:23;16.50;64.50
37052;DHT22;22964;52.272;13.356;2022-09-16T00:57:51;16.50;64.80
37052;DHT22;22964;52.272;13.356;2022-09-16T01:00:19;16.50;64.80
37052;DHT22;22964;52.272;13.356;2022-09-16T01:02:46;16.40;64.80
37052;DHT22;22964;52.272;13.356;2022-09-16T01:05:18;16.40;65.00
37052;DHT22;22964;52.272;13.356;2022-09-16T01:07:47;16.40;65.40
37052;DHT22;22964;52.272;13.356;2022-09-16T01:10:17;16.40;65.30
37052;DHT22;22964;52.272;13.356;2022-09-16T01:12:46;16.30;65.30
37052;DHT22;22964;52.272;13.356;2022-09-16T01:15:14;16.30;65.40
37052;DHT22;22964;52.272;13.356;2022-09-16T01:20:45;16.30;65.40
37052;DHT22;22964;52.272;13.356;2022-09-16T01:23:34;16.20;66.40
37052;DHT22;22964;52.272;13.356;2022-09-16T01:31:42;16.20;65.90
37052;DHT22;22964;52.272;13.356;2022-09-16T01:34:25;16.10;66.20
37052;DHT22;22964;52.272;13.356;2022-09-16T01:39:53;16.10;66.70
37052;DHT22;22964;52.272;13.356;2022-09-16T01:42:42;16.10;66.60
37052;DHT22;22964;52.272;13.356;2022-09-16T01:47:56;16.00;66.20
37052;DHT22;22964;52.272;13.356;2022-09-16T01:50:31;16.00;66.90
37052;DHT22;22964;52.272;13.356;2022-09-16T01:53:15;16.00;66.80
37052;DHT22;22964;52.272;13.356;2022-09-16T01:55:58;15.90;66.70
37052;DHT22;22964;52.272;13.356;2022-09-16T01:58:26;15.90;67.20
37052;DHT22;22964;52.272;13.356;2022-09-16T02:00:59;15.90;66.70
37052;DHT22;22964;52.272;13.356;2022-09-16T02:03:31;15.90;66.40
37052;DHT22;22964;52.272;13.356;2022-09-16T02:06:08;15.90;66.70
37052;DHT22;22964;52.272;13.356;2022-09-16T02:08:39;15.80;67.20
37052;DHT22;22964;52.272;13.356;2022-09-16T02:11:07;15.80;66.80
37052;DHT22;22964;52.272;13.356;2022-09-16T02:13:38;15.80;67.10
37052;DHT22;22964;52.272;13.356;2022-09-16T02:16:09;15.80;67.20
37052;DHT22;22964;52.272;13.356;2022-09-16T02:18:40;15.70;67.30
37052;DHT22;22964;52.272;13.356;2022-09-16T02:21:10;15.70;67.30
37052;DHT22;22964;52.272;13.356;2022-09-16T02:23:41;15.70;67.60
37052;DHT22;22964;52.272;13.356;2022-09-16T02:26:10;15.70;67.70
37052;DHT22;22964;52.272;13.356;2022-09-16T02:28:41;15.60;67.80
37052;DHT22;22964;52.272;13.356;2022-09-16T02:31:09;15.70;68.10
37052;DHT22;22964;52.272;13.356;2022-09-16T02:33:40;15.60;68.00
37052;DHT22;22964;52.272;13.356;2022-09-16T02:36:15;15.60;68.40
37052;DHT22;22964;52.272;13.356;2022-09-16T02:38:46;15.60;68.60
37052;DHT22;22964;52.272;13.356;2022-09-16T02:41:13;15.60;68.30
37052;DHT22;22964;52.272;13.356;2022-09-16T02:43:43;15.60;68.10
37052;DHT22;22964;52.272;13.356;2022-09-16T02:46:30;15.60;68.50
37052;DHT22;22964;52.272;13.356;2022-09-16T02:52:05;15.60;68.60
37052;DHT22;22964;52.272;13.356;2022-09-16T02:57:17;15.60;68.60
37052;DHT22;22964;52.272;13.356;2022-09-16T02:59:43;15.60;68.20
37052;DHT22;22964;52.272;13.356;2022-09-16T03:02:09;15.60;68.30
37052;DHT22;22964;52.272;13.356;2022-09-16T03:04:35;15.60;68.40
37052;DHT22;22964;52.272;13.356;2022-09-16T03:07:06;15.60;68.30
37052;DHT22;22964;52.272;13.356;2022-09-16T03:09:34;15.50;68.60
37052;DHT22;22964;52.272;13.356;2022-09-16T03:15:25;15.50;68.90
37052;DHT22;22964;52.272;13.356;2022-09-16T03:20:59;15.50;69.00
37052;DHT22;22964;52.272;13.356;2022-09-16T03:29:12;15.40;68.50
37052;DHT22;22964;52.272;13.356;2022-09-16T03:34:51;15.40;69.40
37052;DHT22;22964;52.272;13.356;2022-09-16T03:37:19;15.40;69.10
37052;DHT22;22964;52.272;13.356;2022-09-16T03:39:51;15.30;69.00
37052;DHT22;22964;52.272;13.356;2022-09-16T03:42:18;15.40;69.30
37052;DHT22;22964;52.272;13.356;2022-09-16T03:44:44;15.30;69.10
37052;DHT22;22964;52.272;13.356;2022-09-16T03:47:10;15.30;69.20
37052;DHT22;22964;52.272;13.356;2022-09-16T03:49:36;15.30;69.50
37052;DHT22;22964;52.272;13.356;2022-09-16T03:52:03;15.30;69.40
37052;DHT22;22964;52.272;13.356;2022-09-16T03:54:30;15.30;69.50
37052;DHT22;22964;52.272;13.356;2022-09-16T03:56:56;15.20;69.40
37052;DHT22;22964;52.272;13.356;2022-09-16T03:59:21;15.30;69.60
37052;DHT22;22964;52.272;13.356;2022-09-16T04:01:47;15.30;69.70
37052;DHT22;22964;52.272;13.356;2022-09-16T04:04:13;15.20;69.60
37052;DHT22;22964;52.272;13.356;2022-09-16T04:06:39;15.20;69.60
37052;DHT22;22964;52.272;13.356;2022-09-16T04:09:05;15.20;69.70
37052;DHT22;22964;52.272;13.356;2022-09-16T04:11:32;15.20;69.90
37052;DHT22;22964;52.272;13.356;2022-09-16T04:13:59;15.20;69.90
37052;DHT22;22964;52.272;13.356;2022-09-16T04:16:25;15.20;70.00
37052;DHT22;22964;52.272;13.356;2022-09-16T04:18:52;15.20;70.10
37052;DHT22;22964;52.272;13.356;2022-09-16T04:21:18;15.20;70.10
37052;DHT22;22964;52.272;13.356;2022-09-16T04:23:44;15.10;70.10
37052;DHT22;22964;52.272;13.356;2022-09-16T04:26:10;15.20;70.20
37052;DHT22;22964;52.272;13.356;2022-09-16T04:28:36;15.20;70.20
37052;DHT22;22964;52.272;13.356;2022-09-16T04:31:04;15.10;70.30
37052;DHT22;22964;52.272;13.356;2022-09-16T04:33:32;15.10;70.40
37052;DHT22;22964;52.272;13.356;2022-09-16T04:36:13;15.10;70.30
37052;DHT22;22964;52.272;13.356;2022-09-16T04:38:41;15.10;70.80
37052;DHT22;22964;52.272;13.356;2022-09-16T04:41:08;15.10;70.40
37052;DHT22;22964;52.272;13.356;2022-09-16T04:43:34;15.10;70.20
37052;DHT22;22964;52.272;13.356;2022-09-16T04:46:00;15.10;70.40
37052;DHT22;22964;52.272;13.356;2022-09-16T04:48:26;15.10;70.40
37052;DHT22;22964;52.272;13.356;2022-09-16T04:50:52;15.00;70.40
37052;DHT22;22964;52.272;13.356;2022-09-16T04:53:21;15.10;70.40
37052;DHT22;22964;52.272;13.356;2022-09-16T04:55:47;15.10;70.90
37052;DHT22;22964;52.272;13.356;2022-09-16T04:58:13;15.10;71.40
37052;DHT22;22964;52.272;13.356;2022-09-16T05:00:39;15.00;70.60
37052;DHT22;22964;52.272;13.356;2022-09-16T05:03:06;15.00;70.60
37052;DHT22;22964;52.272;13.356;2022-09-16T05:05:32;15.00;70.70
37052;DHT22;22964;52.272;13.356;2022-09-16T05:07:57;15.10;70.60
37052;DHT22;22964;52.272;13.356;2022-09-16T05:10:23;15.00;70.70
37052;DHT22;22964;52.272;13.356;2022-09-16T05:12:52;15.00;70.90
37052;DHT22;22964;52.272;13.356;2022-09-16T05:15:19;15.00;71.30
37052;DHT22;22964;52.272;13.356;2022-09-16T05:17:44;15.00;71.20
37052;DHT22;22964;52.272;13.356;2022-09-16T05:20:11;15.00;72.00
37052;DHT22;22964;52.272;13.356;2022-09-16T05:22:38;15.10;72.20
37052;DHT22;22964;52.272;13.356;2022-09-16T05:25:04;15.00;71.60
37052;DHT22;22964;52.272;13.356;2022-09-16T05:27:30;15.00;71.70
37052;DHT22;22964;52.272;13.356;2022-09-16T05:29:56;15.10;71.80
37052;DHT22;22964;52.272;13.356;2022-09-16T05:32:22;15.10;71.80
37052;DHT22;22964;52.272;13.356;2022-09-16T05:34:48;15.10;71.70
37052;DHT22;22964;52.272;13.356;2022-09-16T05:37:15;15.10;71.90
37052;DHT22;22964;52.272;13.356;2022-09-16T05:39:41;15.10;71.80
37052;DHT22;22964;52.272;13.356;2022-09-16T05:42:08;15.20;71.80
37052;DHT22;22964;52.272;13.356;2022-09-16T05:44:34;15.20;71.70
37052;DHT22;22964;52.272;13.356;2022-09-16T05:47:00;15.20;71.70
37052;DHT22;22964;52.272;13.356;2022-09-16T05:49:26;15.20;71.90
37052;DHT22;22964;52.272;13.356;2022-09-16T05:51:52;15.20;72.00
37052;DHT22;22964;52.272;13.356;2022-09-16T05:54:19;15.20;71.80
37052;DHT22;22964;52.272;13.356;2022-09-16T05:56:46;15.20;71.90
37052;DHT22;22964;52.272;13.356;2022-09-16T05:59:13;15.30;72.20
37052;DHT22;22964;52.272;13.356;2022-09-16T06:01:39;15.30;72.30
37052;DHT22;22964;52.272;13.356;2022-09-16T06:04:06;15.30;72.10
37052;DHT22;22964;52.272;13.356;2022-09-16T06:06:33;15.30;72.20
37052;DHT22;22964;52.272;13.356;2022-09-16T06:09:04;15.30;72.30
37052;DHT22;22964;52.272;13.356;2022-09-16T06:11:30;15.40;72.60
37052;DHT22;22964;52.272;13.356;2022-09-16T06:13:57;15.40;72.60
37052;DHT22;22964;52.272;13.356;2022-09-16T06:16:26;15.40;72.70
37052;DHT22;22964;52.272;13.356;2022-09-16T06:18:53;15.50;72.60
37052;DHT22;22964;52.272;13.356;2022-09-16T06:21:19;15.50;72.40
37052;DHT22;22964;52.272;13.356;2022-09-16T06:23:45;15.60;72.60
37052;DHT22;22964;52.272;13.356;2022-09-16T06:26:14;15.60;72.30
37052;DHT22;22964;52.272;13.356;2022-09-16T06:28:41;15.60;72.40
37052;DHT22;22964;52.272;13.356;2022-09-16T06:31:08;15.60;72.20
37052;DHT22;22964;52.272;13.356;2022-09-16T06:33:35;15.70;72.40
37052;DHT22;22964;52.272;13.356;2022-09-16T06:36:05;15.70;72.70
37052;DHT22;22964;52.272;13.356;2022-09-16T06:38:32;15.70;72.60
37052;DHT22;22964;52.272;13.356;2022-09-16T06:41:02;15.80;72.70
37052;DHT22;22964;52.272;13.356;2022-09-16T06:43:28;15.80;72.30
37052;DHT22;22964;52.272;13.356;2022-09-16T06:46:08;15.80;72.30
37052;DHT22;22964;52.272;13.356;2022-09-16T06:48:39;15.90;72.70
37052;DHT22;22964;52.272;13.356;2022-09-16T06:51:26;15.90;72.50
37052;DHT22;22964;52.272;13.356;2022-09-16T06:53:57;15.90;73.00
37052;DHT22;22964;52.272;13.356;2022-09-16T06:56:23;16.00;72.60
37052;DHT22;22964;52.272;13.356;2022-09-16T06:58:51;16.10;72.30
37052;DHT22;22964;52.272;13.356;2022-09-16T07:01:27;16.10;72.40
37052;DHT22;22964;52.272;13.356;2022-09-16T07:03:54;16.20;72.30
37052;DHT22;22964;52.272;13.356;2022-09-16T07:06:22;16.20;72.10
37052;DHT22;22964;52.272;13.356;2022-09-16T07:08:48;16.30;72.00
37052;DHT22;22964;52.272;13.356;2022-09-16T07:11:17;16.40;71.90
37052;DHT22;22964;52.272;13.356;2022-09-16T07:13:44;16.40;72.70
37052;DHT22;22964;52.272;13.356;2022-09-16T07:16:17;16.50;71.60
37052;DHT22;22964;52.272;13.356;2022-09-16T07:18:43;16.50;71.20
37052;DHT22;22964;52.272;13.356;2022-09-16T07:21:14;16.60;71.10
37052;DHT22;22964;52.272;13.356;2022-09-16T07:23:41;16.60;71.00
37052;DHT22;22964;52.272;13.356;2022-09-16T07:26:12;16.70;70.90
37052;DHT22;22964;52.272;13.356;2022-09-16T07:28:39;16.70;70.50
37052;DHT22;22964;52.272;13.356;2022-09-16T07:31:07;16.80;70.20
37052;DHT22;22964;52.272;13.356;2022-09-16T07:33:41;16.90;70.30
37052;DHT22;22964;52.272;13.356;2022-09-16T07:36:09;16.90;70.20
37052;DHT22;22964;52.272;13.356;2022-09-16T07:38:35;17.00;70.30
37052;DHT22;22964;52.272;13.356;2022-09-16T07:41:16;17.00;70.20
37052;DHT22;22964;52.272;13.356;2022-09-16T07:43:43;17.10;69.90
37052;DHT22;22964;52.272;13.356;2022-09-16T07:46:10;17.20;70.00
37052;DHT22;22964;52.272;13.356;2022-09-16T07:48:36;17.30;70.00
37052;DHT22;22964;52.272;13.356;2022-09-16T07:51:09;17.40;70.10
37052;DHT22;22964;52.272;13.356;2022-09-16T07:53:36;17.50;69.80
37052;DHT22;22964;52.272;13.356;2022-09-16T07:56:07;17.70;69.40
37052;DHT22;22964;52.272;13.356;2022-09-16T07:58:33;17.70;68.60
37052;DHT22;22964;52.272;13.356;2022-09-16T08:00:59;17.90;68.40
37052;DHT22;22964;52.272;13.356;2022-09-16T08:03:25;17.90;67.10
37052;DHT22;22964;52.272;13.356;2022-09-16T08:05:50;18.00;67.20
37052;DHT22;22964;52.272;13.356;2022-09-16T08:08:16;18.00;66.90
37052;DHT22;22964;52.272;13.356;2022-09-16T08:10:42;18.10;66.80
37052;DHT22;22964;52.272;13.356;2022-09-16T08:13:08;18.10;66.90
37052;DHT22;22964;52.272;13.356;2022-09-16T08:15:34;18.10;67.00
37052;DHT22;22964;52.272;13.356;2022-09-16T08:18:00;18.10;66.60
37052;DHT22;22964;52.272;13.356;2022-09-16T08:20:26;18.20;66.50
37052;DHT22;22964;52.272;13.356;2022-09-16T08:22:53;18.20;66.20
37052;DHT22;22964;52.272;13.356;2022-09-16T08:25:18;18.30;66.10
37052;DHT22;22964;52.272;13.356;2022-09-16T08:27:44;18.30;66.00
37052;DHT22;22964;52.272;13.356;2022-09-16T08:30:10;18.30;66.30
37052;DHT22;22964;52.272;13.356;2022-09-16T08:32:36;18.40;66.50
37052;DHT22;22964;52.272;13.356;2022-09-16T08:35:02;18.60;66.20
37052;DHT22;22964;52.272;13.356;2022-09-16T08:37:28;18.70;66.20
37052;DHT22;22964;52.272;13.356;2022-09-16T08:39:53;18.90;65.60
37052;DHT22;22964;52.272;13.356;2022-09-16T08:50:18;19.40;61.70
37052;DHT22;22964;52.272;13.356;2022-09-16T08:52:46;19.50;61.60
37052;DHT22;22964;52.272;13.356;2022-09-16T08:55:20;19.60;61.90
37052;DHT22;22964;52.272;13.356;2022-09-16T08:57:55;19.70;60.90
37052;DHT22;22964;52.272;13.356;2022-09-16T09:00:22;19.90;61.00
37052;DHT22;22964;52.272;13.356;2022-09-16T09:05:39;20.00;59.30
37052;DHT22;22964;52.272;13.356;2022-09-16T09:10:55;20.10;59.60
37052;DHT22;22964;52.272;13.356;2022-09-16T09:16:46;20.00;58.60
37052;DHT22;22964;52.272;13.356;2022-09-16T09:19:22;20.00;58.20
37052;DHT22;22964;52.272;13.356;2022-09-16T09:22:12;20.10;59.00
37052;DHT22;22964;52.272;13.356;2022-09-16T09:24:51;20.10;58.70
37052;DHT22;22964;52.272;13.356;2022-09-16T09:27:30;20.20;58.20
37052;DHT22;22964;52.272;13.356;2022-09-16T09:30:19;20.20;57.70
37052;DHT22;22964;52.272;13.356;2022-09-16T09:41:11;20.70;58.00
37052;DHT22;22964;52.272;13.356;2022-09-16T09:46:19;21.00;56.90
37052;DHT22;22964;52.272;13.356;2022-09-16T09:48:53;21.00;55.30
37052;DHT22;22964;52.272;13.356;2022-09-16T09:51:34;21.20;55.80
37052;DHT22;22964;52.272;13.356;2022-09-16T09:54:24;21.20;54.10
37052;DHT22;22964;52.272;13.356;2022-09-16T09:57:12;21.30;53.20
37052;DHT22;22964;52.272;13.356;2022-09-16T10:02:23;21.40;53.40
37052;DHT22;22964;52.272;13.356;2022-09-16T10:04:49;21.40;53.00
37052;DHT22;22964;52.272;13.356;2022-09-16T10:07:18;21.40;53.30
37052;DHT22;22964;52.272;13.356;2022-09-16T10:09:54;21.40;52.80
37052;DHT22;22964;52.272;13.356;2022-09-16T10:12:34;21.40;51.30
37052;DHT22;22964;52.272;13.356;2022-09-16T10:15:00;21.40;50.50
37052;DHT22;22964;52.272;13.356;2022-09-16T10:17:29;21.40;51.50
37052;DHT22;22964;52.272;13.356;2022-09-16T10:22:27;21.30;49.30
37052;DHT22;22964;52.272;13.356;2022-09-16T10:24:56;21.20;49.50
37052;DHT22;22964;52.272;13.356;2022-09-16T10:27:27;21.10;50.30
37052;DHT22;22964;52.272;13.356;2022-09-16T10:30:16;21.00;51.00
37052;DHT22;22964;52.272;13.356;2022-09-16T10:35:33;21.00;50.60
37052;DHT22;22964;52.272;13.356;2022-09-16T10:38:21;21.10;50.50
37052;DHT22;22964;52.272;13.356;2022-09-16T10:41:01;21.30;49.00
37052;DHT22;22964;52.272;13.356;2022-09-16T10:43:29;21.30;49.30
37052;DHT22;22964;52.272;13.356;2022-09-16T10:45:56;21.50;50.30
37052;DHT22;22964;52.272;13.356;2022-09-16T10:48:26;21.60;50.50
37052;DHT22;22964;52.272;13.356;2022-09-16T10:50:57;21.60;49.90
37052;DHT22;22964;52.272;13.356;2022-09-16T10:53:36;21.70;50.10
37052;DHT22;22964;52.272;13.356;2022-09-16T10:56:05;21.80;49.70
37052;DHT22;22964;52.272;13.356;2022-09-16T10:58:31;21.90;49.40
37052;DHT22;22964;52.272;13.356;2022-09-16T11:01:15;22.00;48.80
37052;DHT22;22964;52.272;13.356;2022-09-16T11:09:04;21.90;48.80
37052;DHT22;22964;52.272;13.356;2022-09-16T11:16:54;22.10;50.10
37052;DHT22;22964;52.272;13.356;2022-09-16T11:27:53;22.60;47.30
37052;DHT22;22964;52.272;13.356;2022-09-16T11:30:21;22.60;46.70
37052;DHT22;22964;52.272;13.356;2022-09-16T11:41:03;22.50;48.10
37052;DHT22;22964;52.272;13.356;2022-09-16T11:57:15;22.80;45.70
37052;DHT22;22964;52.272;13.356;2022-09-16T11:59:52;22.70;46.10
37052;DHT22;22964;52.272;13.356;2022-09-16T12:12:56;22.90;45.70
37052;DHT22;22964;52.272;13.356;2022-09-16T12:15:38;23.00;45.80
37052;DHT22;22964;52.272;13.356;2022-09-16T12:18:19;23.00;45.70
37052;DHT22;22964;52.272;13.356;2022-09-16T12:20:50;23.00;45.30
37052;DHT22;22964;52.272;13.356;2022-09-16T12:23:21;23.10;45.60
37052;DHT22;22964;52.272;13.356;2022-09-16T12:28:30;23.10;45.20
37052;DHT22;22964;52.272;13.356;2022-09-16T12:31:09;23.20;45.50
37052;DHT22;22964;52.272;13.356;2022-09-16T12:33:47;23.30;45.30
37052;DHT22;22964;52.272;13.356;2022-09-16T12:36:19;23.40;45.50
37052;DHT22;22964;52.272;13.356;2022-09-16T12:38:46;23.50;44.90
37052;DHT22;22964;52.272;13.356;2022-09-16T12:49:08;23.70;44.20
37052;DHT22;22964;52.272;13.356;2022-09-16T12:51:57;23.80;43.80
37052;DHT22;22964;52.272;13.356;2022-09-16T13:00:23;23.80;41.40
37052;DHT22;22964;52.272;13.356;2022-09-16T13:03:06;23.70;41.90
37052;DHT22;22964;52.272;13.356;2022-09-16T13:05:36;23.60;41.90
37052;DHT22;22964;52.272;13.356;2022-09-16T13:08:17;23.50;43.10
37052;DHT22;22964;52.272;13.356;2022-09-16T13:10:44;23.50;42.40
37052;DHT22;22964;52.272;13.356;2022-09-16T13:13:19;23.40;43.20
37052;DHT22;22964;52.272;13.356;2022-09-16T13:15:55;23.30;42.00
37052;DHT22;22964;52.272;13.356;2022-09-16T13:18:43;23.30;42.10
37052;DHT22;22964;52.272;13.356;2022-09-16T13:23:46;23.10;41.40
37052;DHT22;22964;52.272;13.356;2022-09-16T13:26:12;23.00;41.40
37052;DHT22;22964;52.272;13.356;2022-09-16T13:28:44;22.90;42.20
37052;DHT22;22964;52.272;13.356;2022-09-16T13:34:01;22.80;42.30
37052;DHT22;22964;52.272;13.356;2022-09-16T13:36:32;22.80;42.50
37052;DHT22;22964;52.272;13.356;2022-09-16T13:39:04;22.70;42.50
37052;DHT22;22964;52.272;13.356;2022-09-16T13:41:36;22.80;42.60
37052;DHT22;22964;52.272;13.356;2022-09-16T13:44:39;22.90;42.20
37052;DHT22;22964;52.272;13.356;2022-09-16T13:49:42;23.00;42.90
37052;DHT22;22964;52.272;13.356;2022-09-16T13:52:11;23.10;42.90
37052;DHT22;22964;52.272;13.356;2022-09-16T13:54:46;23.20;42.60
37052;DHT22;22964;52.272;13.356;2022-09-16T14:13:56;22.90;41.50
37052;DHT22;22964;52.272;13.356;2022-09-16T14:16:26;22.80;41.50
37052;DHT22;22964;52.272;13.356;2022-09-16T14:21:44;22.70;41.50
37052;DHT22;22964;52.272;13.356;2022-09-16T14:24:15;22.70;42.70
37052;DHT22;22964;52.272;13.356;2022-09-16T14:26:53;22.70;42.10
37052;DHT22;22964;52.272;13.356;2022-09-16T14:29:19;22.80;41.60
37052;DHT22;22964;52.272;13.356;2022-09-16T14:31:45;22.80;42.90
37052;DHT22;22964;52.272;13.356;2022-09-16T14:34:20;22.80;42.20
37052;DHT22;22964;52.272;13.356;2022-09-16T14:36:48;22.90;42.10
37052;DHT22;22964;52.272;13.356;2022-09-16T14:39:16;22.90;41.70
37052;DHT22;22964;52.272;13.356;2022-09-16T14:41:56;23.00;41.40
37052;DHT22;22964;52.272;13.356;2022-09-16T14:44:49;23.00;40.50
37052;DHT22;22964;52.272;13.356;2022-09-16T14:47:28;23.00;39.70
37052;DHT22;22964;52.272;13.356;2022-09-16T14:50:00;23.00;40.20
37052;DHT22;22964;52.272;13.356;2022-09-16T14:52:30;22.90;41.10
37052;DHT22;22964;52.272;13.356;2022-09-16T14:54:56;22.90;40.60
37052;DHT22;22964;52.272;13.356;2022-09-16T14:57:24;22.90;40.30
37052;DHT22;22964;52.272;13.356;2022-09-16T15:00:03;22.90;40.30
37052;DHT22;22964;52.272;13.356;2022-09-16T15:02:44;22.90;39.80
37052;DHT22;22964;52.272;13.356;2022-09-16T15:05:31;23.10;39.80
37052;DHT22;22964;52.272;13.356;2022-09-16T15:10:29;23.10;39.70
37052;DHT22;22964;52.272;13.356;2022-09-16T15:12:56;23.20;39.70
37052;DHT22;22964;52.272;13.356;2022-09-16T15:15:33;23.20;39.80
37052;DHT22;22964;52.272;13.356;2022-09-16T15:18:04;23.30;39.10
37052;DHT22;22964;52.272;13.356;2022-09-16T15:20:36;23.20;38.80
37052;DHT22;22964;52.272;13.356;2022-09-16T15:23:04;23.20;38.70
37052;DHT22;22964;52.272;13.356;2022-09-16T15:25:32;23.20;38.70
37052;DHT22;22964;52.272;13.356;2022-09-16T15:28:06;23.10;38.90
37052;DHT22;22964;52.272;13.356;2022-09-16T15:30:49;23.10;38.50
37052;DHT22;22964;52.272;13.356;2022-09-16T15:33:41;23.10;38.20
37052;DHT22;22964;52.272;13.356;2022-09-16T15:36:39;23.00;37.10
37052;DHT22;22964;52.272;13.356;2022-09-16T15:41:49;22.80;37.30
37052;DHT22;22964;52.272;13.356;2022-09-16T15:44:20;22.80;38.20
37052;DHT22;22964;52.272;13.356;2022-09-16T15:46:47;22.70;37.70
37052;DHT22;22964;52.272;13.356;2022-09-16T15:49:16;22.60;38.40
37052;DHT22;22964;52.272;13.356;2022-09-16T15:51:46;22.50;38.60
37052;DHT22;22964;52.272;13.356;2022-09-16T15:57:07;22.40;38.70
37052;DHT22;22964;52.272;13.356;2022-09-16T15:59:38;22.30;37.60
37052;DHT22;22964;52.272;13.356;2022-09-16T16:05:13;22.10;38.50
37052;DHT22;22964;52.272;13.356;2022-09-16T16:10:16;22.00;39.00
37052;DHT22;22964;52.272;13.356;2022-09-16T16:12:43;21.90;39.40
37052;DHT22;22964;52.272;13.356;2022-09-16T16:15:11;21.90;40.30
37052;DHT22;22964;52.272;13.356;2022-09-16T16:17:37;21.80;39.80
37052;DHT22;22964;52.272;13.356;2022-09-16T16:20:04;21.80;39.70
37052;DHT22;22964;52.272;13.356;2022-09-16T16:22:29;21.70;39.70
37052;DHT22;22964;52.272;13.356;2022-09-16T16:24:56;21.70;39.90
37052;DHT22;22964;52.272;13.356;2022-09-16T16:27:22;21.60;39.90
37052;DHT22;22964;52.272;13.356;2022-09-16T16:29:48;21.60;40.10
37052;DHT22;22964;52.272;13.356;2022-09-16T16:32:15;21.50;40.10
37052;DHT22;22964;52.272;13.356;2022-09-16T16:34:45;21.50;39.80
37052;DHT22;22964;52.272;13.356;2022-09-16T16:37:13;21.40;39.90
37052;DHT22;22964;52.272;13.356;2022-09-16T16:39:39;21.40;40.00
37052;DHT22;22964;52.272;13.356;2022-09-16T16:42:06;21.30;40.00
37052;DHT22;22964;52.272;13.356;2022-09-16T16:44:33;21.30;40.00
37052;DHT22;22964;52.272;13.356;2022-09-16T16:46:59;21.20;40.00
37052;DHT22;22964;52.272;13.356;2022-09-16T16:49:25;21.20;40.40
37052;DHT22;22964;52.272;13.356;2022-09-16T16:51:51;21.10;40.40
37052;DHT22;22964;52.272;13.356;2022-09-16T16:54:20;21.10;40.40
37052;DHT22;22964;52.272;13.356;2022-09-16T16:56:46;21.00;40.60
37052;DHT22;22964;52.272;13.356;2022-09-16T16:59:13;20.90;40.60
37052;DHT22;22964;52.272;13.356;2022-09-16T17:01:40;20.90;41.40
37052;DHT22;22964;52.272;13.356;2022-09-16T17:04:06;20.80;40.90
37052;DHT22;22964;52.272;13.356;2022-09-16T17:06:32;20.70;41.00
37052;DHT22;22964;52.272;13.356;2022-09-16T17:08:59;20.60;40.90
37052;DHT22;22964;52.272;13.356;2022-09-16T17:11:26;20.60;40.60
37052;DHT22;22964;52.272;13.356;2022-09-16T17:13:56;20.50;40.50
37052;DHT22;22964;52.272;13.356;2022-09-16T17:16:22;20.50;40.80
37052;DHT22;22964;52.272;13.356;2022-09-16T17:18:50;20.40;40.80
37052;DHT22;22964;52.272;13.356;2022-09-16T17:21:24;20.30;41.10
37052;DHT22;22964;52.272;13.356;2022-09-16T17:23:51;20.20;41.30
37052;DHT22;22964;52.272;13.356;2022-09-16T17:26:17;20.20;41.60
37052;DHT22;22964;52.272;13.356;2022-09-16T17:28:45;20.10;41.60
37052;DHT22;22964;52.272;13.356;2022-09-16T17:31:17;20.00;41.70
37052;DHT22;22964;52.272;13.356;2022-09-16T17:33:45;19.90;41.80
37052;DHT22;22964;52.272;13.356;2022-09-16T17:36:12;19.90;42.00
37052;DHT22;22964;52.272;13.356;2022-09-16T17:38:38;19.80;42.00
37052;DHT22;22964;52.272;13.356;2022-09-16T17:41:11;19.70;42.20
37052;DHT22;22964;52.272;13.356;2022-09-16T17:43:37;19.70;42.30
37052;DHT22;22964;52.272;13.356;2022-09-16T17:46:05;19.60;42.40
37052;DHT22;22964;52.272;13.356;2022-09-16T17:48:31;19.50;42.50
37052;DHT22;22964;52.272;13.356;2022-09-16T17:50:57;19.50;42.70
37052;DHT22;22964;52.272;13.356;2022-09-16T17:53:23;19.40;42.70
37052;DHT22;22964;52.272;13.356;2022-09-16T17:55:50;19.40;42.90
37052;DHT22;22964;52.272;13.356;2022-09-16T17:58:16;19.30;42.90
37052;DHT22;22964;52.272;13.356;2022-09-16T18:00:43;19.30;43.00
37052;DHT22;22964;52.272;13.356;2022-09-16T18:03:10;19.20;43.10
37052;DHT22;22964;52.272;13.356;2022-09-16T18:05:37;19.20;43.20
37052;DHT22;22964;52.272;13.356;2022-09-16T18:08:03;19.10;43.30
37052;DHT22;22964;52.272;13.356;2022-09-16T18:10:30;19.00;43.30
37052;DHT22;22964;52.272;13.356;2022-09-16T18:12:56;19.00;43.50
37052;DHT22;22964;52.272;13.356;2022-09-16T18:17:59;18.90;43.70
37052;DHT22;22964;52.272;13.356;2022-09-16T18:20:25;18.80;43.80
37052;DHT22;22964;52.272;13.356;2022-09-16T18:22:51;18.80;43.90
37052;DHT22;22964;52.272;13.356;2022-09-16T18:25:16;18.80;44.00
37052;DHT22;22964;52.272;13.356;2022-09-16T18:27:42;18.70;44.10
37052;DHT22;22964;52.272;13.356;2022-09-16T18:30:08;18.70;44.30
37052;DHT22;22964;52.272;13.356;2022-09-16T18:32:34;18.60;44.30
37052;DHT22;22964;52.272;13.356;2022-09-16T18:34:59;18.60;44.40
37052;DHT22;22964;52.272;13.356;2022-09-16T18:37:27;18.60;44.60
37052;DHT22;22964;52.272;13.356;2022-09-16T18:39:52;18.50;44.60